Aérodrome :
LOGIN :

S'inscrire | Disclaimer

   EN    FR    IT 

 










Légende :    VFR   VFR Marginal   IFR   IFR Intensif   IFR Très Intensif
Visi : 
Plafond : 
>= 8 km
>= 3000ft
5 à 8 km
1000 à 3000 ft
1500m à 5 km
500 à 1000 ft
800 à 1500m
200 à 500 ft
< 800m
< 200 ft
Symboles :   Orages  Brouillard  Fortes neiges  Fortes précipitations  Vent > 20 kt
SIGMETs :   Divers  Orages  Givrage  Turbulence  Onde Orograph.  Cendres Volcan.







- Altitude de l'aérodrome : 3 ft
- Code IATA : DHR


EHKD - Den Helder De Kooy

DERNIER METAR :
  • 200525Z AUTO 22015KT 190V260 9999 SCT031 OVC036 18/16 Q1013 BLU 22016KT 9999 FEW015 BKN030 TEMPO SCT012 BKN020

METARs EXPIRÉS :
  • 200455Z AUTO 23014KT 190V260 9999 FEW012 SCT014 BKN017 18/16 Q1013 GRN 22015KT 9999 BKN025 TEMPO SCT012 BKN020
  • 200425Z AUTO 22014KT 190V250 9999 BKN025 OVC029 18/16 Q1013 BLU 22015KT 9999 BKN025 TEMPO SCT012 BKN020
  • 200355Z AUTO 22016KT 9999 SCT026 OVC030 18/16 Q1013 BLU
  • 200325Z AUTO 23015KT 9999 FEW017 BKN025 OVC029 18/16 Q1013 BLU
  • 200255Z AUTO 23014KT 9999 FEW019 BKN024 OVC028 19/15 Q1014 WHT

TAF TAF EHKD
Valide du 20 à 01h jusqu'au 20 à 13h UTC


200003Z 2001/2013 22017G27KT CAVOK
TEMPO 2001/2008 SCT015 BKN020
PROB30
TEMPO 2002/2008 SCT012 BKN018
Pas de NOTAMs connus pour ce terrain.



MET'MAP, la Météo Aéronautique d'un coup d'oeil ! - Copyright ORBIFLY Décembre 2007 - Disclaimer

ORBIFLY MET'MAP TEAM :

Programmation & Développement : Alexandra Zaïnal
Conception & Développement : Baudouin d'Aumeries
Co-Programmation & Développement : Marc-Olivier Méhu
Soutien technique & logistique : Manuel Goepfert

Contact : metmap@orbifly.com




SOURCES & CREDITS :

   NOAA